Time;durP1;ratioP1;P1;durP2;ratioP2;P2;SDS_P1;SDS_P2;PMS_P1;PMS_P2;Temp;Humidity;BMP_temperature;BMP_pressure;BME280_temperature;BME280_humidity;BME280_pressure;Samples;Min_cycle;Max_cycle;Signal;HPM_P1;HPM_P2
2023/07/31 00:02:06;;;;;;;4.35;2.88;;;14.00;99.90;;;14.82;97.12;98009.25;10374046;28;20222;-85
2023/07/31 00:07:09;;;;;;;2.72;2.38;;;14.10;99.90;;;14.86;97.49;98008.56;10378044;28;20235;-81
2023/07/31 00:12:14;;;;;;;4.28;2.78;;;14.20;99.90;;;14.86;97.64;98013.72;10375636;28;20226;-82
2023/07/31 00:17:18;;;;;;;3.92;2.60;;;14.20;99.90;;;14.85;97.56;98009.41;10367483;28;20238;-83
2023/07/31 00:22:22;;;;;;;2.75;2.50;;;14.10;99.90;;;14.78;97.53;98015.06;10364915;28;20236;-81
2023/07/31 00:27:26;;;;;;;4.13;2.97;;;14.00;99.90;;;14.74;96.90;97995.19;10377602;28;20236;-82
2023/07/31 00:32:30;;;;;;;5.13;3.22;;;13.80;99.90;;;14.57;97.18;98001.31;10367835;28;20337;-82
2023/07/31 00:37:33;;;;;;;5.35;3.15;;;13.80;99.90;;;14.59;96.79;98009.94;10371076;28;20728;-83
2023/07/31 00:42:37;;;;;;;3.10;2.80;;;13.80;99.90;;;14.58;97.91;97992.75;10376921;28;20226;-83
2023/07/31 00:47:41;;;;;;;4.40;2.72;;;13.80;99.90;;;14.51;98.39;98006.16;10369494;28;20623;-83
2023/07/31 00:52:44;;;;;;;3.47;2.63;;;13.80;99.90;;;14.43;98.90;98006.69;10371017;28;20227;-82
2023/07/31 00:57:51;;;;;;;4.45;2.67;;;13.70;99.90;;;14.49;97.97;98013.78;10372763;28;20230;-83
2023/07/31 01:02:55;;;;;;;3.28;2.60;;;13.60;99.90;;;14.19;98.27;97995.28;10362455;28;20235;-81
2023/07/31 01:08:09;;;;;;;4.32;2.85;;;13.40;99.90;;;14.07;98.87;98000.75;10375477;28;20241;-82
2023/07/31 01:13:14;;;;;;;3.38;2.90;;;13.30;99.90;;;13.90;98.70;97996.53;10371007;28;20290;-81
2023/07/31 01:18:17;;;;;;;5.00;2.95;;;13.20;99.90;;;13.94;100.00;97996.75;10382875;28;20305;-86
2023/07/31 01:23:37;;;;;;;3.42;2.75;;;13.20;99.90;;;13.85;99.88;98010.84;10376949;28;20230;-86
2023/07/31 01:29:04;;;;;;;3.95;3.20;;;13.10;99.90;;;13.86;100.00;97995.53;10373743;28;20305;-85
2023/07/31 01:34:10;;;;;;;3.30;2.92;;;13.10;99.90;;;13.90;99.14;97987.13;10369218;28;20642;-85
2023/07/31 01:39:13;;;;;;;4.97;3.22;;;13.10;99.90;;;13.73;100.00;97982.91;10377142;28;20233;-85
2023/07/31 01:44:17;;;;;;;4.38;2.95;;;13.00;99.90;;;13.80;100.00;97976.38;10375329;28;20286;-85
2023/07/31 01:49:21;;;;;;;6.28;2.78;;;13.00;99.90;;;13.76;100.00;97970.19;10384294;28;20313;-84
2023/07/31 01:54:24;;;;;;;4.15;3.08;;;13.00;99.90;;;13.71;100.00;97971.69;10375313;28;20305;-85
2023/07/31 01:59:29;;;;;;;4.65;3.13;;;12.90;99.90;;;13.63;100.00;97967.88;10367816;28;20692;-85
2023/07/31 02:04:32;;;;;;;3.40;3.10;;;12.90;99.90;;;13.69;100.00;97961.34;10371481;28;20227;-84
2023/07/31 02:09:35;;;;;;;4.07;3.10;;;12.90;99.90;;;13.61;100.00;97959.22;10367627;28;20242;-85
2023/07/31 02:14:40;;;;;;;3.78;3.45;;;12.80;99.90;;;13.66;100.00;97957.75;10374637;28;20229;-84
2023/07/31 02:19:43;;;;;;;4.20;3.28;;;12.90;99.90;;;13.65;100.00;97955.97;10371763;28;20261;-83
2023/07/31 02:24:46;;;;;;;4.55;3.05;;;12.90;99.90;;;13.60;100.00;97948.06;10362438;28;20307;-84
2023/07/31 02:29:51;;;;;;;4.65;3.30;;;12.80;99.90;;;13.43;100.00;97933.56;10369627;28;20301;-85
2023/07/31 02:34:54;;;;;;;4.13;3.10;;;12.70;99.90;;;13.42;100.00;97930.13;10371472;28;20285;-84
2023/07/31 02:39:57;;;;;;;3.22;2.95;;;12.70;99.90;;;13.42;100.00;97931.78;10377731;28;20230;-84
2023/07/31 02:45:02;;;;;;;4.72;2.80;;;12.70;99.90;;;13.38;100.00;97928.19;10384289;28;20333;-85
2023/07/31 02:50:06;;;;;;;3.45;3.15;;;12.60;99.90;;;13.34;100.00;97943.41;10370849;28;20310;-83
2023/07/31 02:55:10;;;;;;;5.00;3.28;;;12.60;99.90;;;13.24;100.00;97926.63;10363618;28;20218;-85
2023/07/31 03:00:14;;;;;;;4.88;3.63;;;12.50;99.90;;;13.23;100.00;97924.88;10366083;28;20226;-80
2023/07/31 03:05:18;;;;;;;3.40;3.08;;;12.40;99.90;;;13.12;100.00;97918.38;10370725;28;20222;-85
2023/07/31 03:10:21;;;;;;;4.13;3.25;;;12.40;99.90;;;13.00;100.00;97909.25;10372440;28;20223;-83
2023/07/31 03:15:25;;;;;;;3.60;3.13;;;12.30;99.90;;;12.96;100.00;97912.50;10366980;28;20224;-83
2023/07/31 03:20:28;;;;;;;4.22;3.17;;;12.30;99.90;;;12.84;100.00;97905.06;10362117;28;20299;-83
2023/07/31 03:25:32;;;;;;;6.03;2.80;;;12.20;99.90;;;12.81;100.00;97896.34;10362719;28;20659;-83
2023/07/31 03:30:38;;;;;;;3.22;2.92;;;12.20;99.90;;;12.77;100.00;97899.59;10366553;28;20713;-85
2023/07/31 03:35:41;;;;;;;3.85;3.55;;;12.20;99.90;;;12.77;100.00;97913.28;10361530;28;20581;-83
2023/07/31 03:40:44;;;;;;;4.18;3.40;;;12.20;99.90;;;12.91;100.00;97905.38;10365057;28;20221;-83
2023/07/31 03:45:49;;;;;;;6.32;3.10;;;12.20;99.90;;;12.89;100.00;97912.13;10365600;28;20563;-83
2023/07/31 03:50:52;;;;;;;3.17;2.90;;;12.30;99.90;;;12.85;100.00;97917.09;10366275;28;20215;-83
2023/07/31 03:55:55;;;;;;;4.53;3.40;;;12.20;99.90;;;12.87;100.00;97904.34;10369849;28;20230;-83
2023/07/31 04:01:00;;;;;;;5.75;3.20;;;12.20;99.90;;;12.93;100.00;97919.16;10372753;28;20236;-82
2023/07/31 04:06:03;;;;;;;3.92;3.28;;;12.20;99.90;;;13.06;100.00;97922.38;10374042;28;20302;-86
2023/07/31 04:11:06;;;;;;;3.75;3.38;;;12.30;99.90;;;13.03;100.00;97919.69;10368134;28;20225;-86
2023/07/31 04:16:11;;;;;;;3.78;3.40;;;12.30;99.90;;;12.95;100.00;97913.28;10377508;28;20233;-83
2023/07/31 04:21:14;;;;;;;4.30;3.50;;;12.30;99.90;;;13.05;100.00;97910.38;10362085;28;20230;-82
2023/07/31 04:26:17;;;;;;;4.90;3.58;;;12.40;99.90;;;13.14;100.00;97914.19;10379824;28;20223;-83
2023/07/31 04:31:22;;;;;;;4.25;3.55;;;12.40;99.90;;;13.25;100.00;97923.28;10368214;28;20322;-85
2023/07/31 04:36:25;;;;;;;5.50;3.42;;;12.60;99.90;;;13.57;100.00;97913.66;10374977;28;20233;-83
2023/07/31 04:41:28;;;;;;;4.68;4.25;;;12.80;99.90;;;13.58;100.00;97903.44;10379842;28;20229;-85
2023/07/31 04:46:33;;;;;;;3.50;3.05;;;12.70;99.90;;;13.79;100.00;97905.22;10371865;28;20738;-85
2023/07/31 04:51:36;;;;;;;4.57;3.10;;;13.00;99.90;;;13.81;98.65;97895.91;10374431;28;20226;-83
2023/07/31 04:56:39;;;;;;;4.93;3.30;;;12.90;99.90;;;13.75;100.00;97892.25;10372204;28;20218;-84
2023/07/31 05:01:45;;;;;;;4.47;3.05;;;13.10;99.90;;;14.06;100.00;97900.47;10373402;28;20218;-84
2023/07/31 05:06:48;;;;;;;4.65;3.03;;;13.30;99.90;;;14.20;100.00;97895.09;10371663;28;20767;-83
2023/07/31 05:11:51;;;;;;;4.13;3.00;;;13.60;99.90;;;14.54;100.00;97888.00;10381315;28;20222;-84
2023/07/31 05:16:55;;;;;;;4.15;3.20;;;13.90;99.90;;;14.83;100.00;97884.03;10370855;28;20325;-85
2023/07/31 05:21:59;;;;;;;3.40;3.10;;;14.20;99.90;;;15.12;97.77;97889.47;10373025;28;20253;-85
2023/07/31 05:27:02;;;;;;;5.47;3.42;;;14.30;99.90;;;15.01;96.67;97887.34;10375678;28;20772;-83
2023/07/31 05:32:08;;;;;;;5.03;3.60;;;14.30;99.90;;;15.19;97.21;97878.59;10377976;28;20293;-83
2023/07/31 05:37:12;;;;;;;7.00;3.50;;;14.50;99.90;;;15.31;97.76;97877.38;10380484;28;20230;-83
2023/07/31 05:42:15;;;;;;;5.25;2.90;;;14.60;99.90;;;15.60;93.92;97877.63;10375474;28;20233;-81
2023/07/31 05:47:19;;;;;;;3.00;2.80;;;14.80;99.90;;;15.69;93.09;97879.69;10368779;28;20231;-82
2023/07/31 05:52:23;;;;;;;3.47;3.03;;;14.90;99.90;;;15.89;93.88;97889.03;10366892;28;20230;-82
2023/07/31 05:57:26;;;;;;;3.40;3.10;;;15.10;99.90;;;16.11;92.80;97890.69;10368500;28;20232;-83
2023/07/31 06:02:33;;;;;;;3.88;3.15;;;15.40;99.90;;;16.35;92.92;97879.47;10364196;28;20227;-83
2023/07/31 06:07:36;;;;;;;3.92;3.05;;;15.60;99.90;;;16.88;91.18;97877.84;10368535;28;20230;-81
2023/07/31 06:12:39;;;;;;;3.47;2.78;;;16.00;99.90;;;17.30;88.29;97873.16;10361553;28;20218;-81
2023/07/31 06:17:44;;;;;;;2.83;2.60;;;16.30;99.90;;;18.17;84.16;97855.84;10365410;28;20618;-82
2023/07/31 06:22:47;;;;;;;5.18;3.13;;;16.90;99.90;;;18.75;77.83;97859.13;10357851;28;20226;-79
2023/07/31 06:27:50;;;;;;;3.78;2.95;;;17.50;99.90;;;19.69;74.18;97852.69;10359286;28;20232;-79
2023/07/31 06:32:55;;;;;;;6.15;2.85;;;18.20;99.90;;;21.05;69.12;97867.31;10365331;28;20233;-79
2023/07/31 06:37:58;;;;;;;3.70;2.42;;;19.50;99.90;;;22.22;59.63;97848.97;10364705;28;20297;-79
2023/07/31 06:43:07;;;;;;;4.63;2.38;;;20.50;99.90;;;22.45;57.47;97858.78;10372720;28;20223;-79
2023/07/31 06:48:12;;;;;;;3.95;2.05;;;20.90;99.90;;;23.29;54.02;97862.13;10365724;28;20222;-81
2023/07/31 06:53:15;;;;;;;2.78;2.25;;;21.60;99.90;;;23.09;54.00;97864.59;10365263;28;20230;-80
2023/07/31 06:58:19;;;;;;;4.20;2.30;;;21.40;99.90;;;22.39;54.94;97859.56;10366625;28;20778;-80
2023/07/31 07:03:23;;;;;;;4.85;2.50;;;21.10;99.90;;;21.41;58.62;97868.75;10365090;28;20234;-82
2023/07/31 07:08:26;;;;;;;2.42;2.22;;;20.00;99.90;;;21.73;58.94;97860.53;10374716;28;20305;-82
2023/07/31 07:13:29;;;;;;;3.92;2.60;;;20.50;99.90;;;21.84;58.35;97858.06;10376454;28;20510;-80
2023/07/31 07:18:34;;;;;;;2.83;2.30;;;20.40;99.90;;;22.01;56.70;97867.81;10360096;28;20229;-82
2023/07/31 07:23:41;;;;;;;3.10;2.33;;;20.60;99.90;;;22.93;55.16;97858.34;10371617;28;20233;-82
2023/07/31 07:28:44;;;;;;;3.50;2.00;;;21.90;99.90;;;23.83;53.90;97847.63;10368243;28;20230;-82
2023/07/31 07:33:49;;;;;;;4.75;2.50;;;22.70;99.90;;;24.32;50.26;97854.75;10359417;28;20323;-80
2023/07/31 07:38:52;;;;;;;3.08;2.10;;;23.10;99.90;;;24.27;51.80;97854.78;10369910;28;21628;-80
2023/07/31 07:43:55;;;;;;;2.40;2.17;;;22.60;99.90;;;25.15;49.26;97837.47;10376074;28;20241;-81
2023/07/31 07:48:59;;;;;;;3.70;2.60;;;23.60;99.90;;;25.38;47.39;97828.69;10377581;28;20237;-83
2023/07/31 07:54:03;;;;;;;3.35;2.42;;;23.70;98.10;;;24.77;48.42;97832.22;10371410;28;20698;-81
2023/07/31 07:59:06;;;;;;;5.03;2.70;;;23.10;98.60;;;24.11;51.29;97824.25;10378058;28;20698;-81
2023/07/31 08:04:11;;;;;;;4.20;2.42;;;22.40;99.90;;;24.17;50.77;97839.06;10366314;28;20237;-82
2023/07/31 08:09:14;;;;;;;5.00;2.40;;;22.50;99.90;;;24.98;50.18;97835.69;10374791;28;20229;-82
2023/07/31 08:14:17;;;;;;;4.82;2.33;;;23.30;99.90;;;25.35;48.98;97828.69;10374971;28;20268;-82
2023/07/31 08:19:22;;;;;;;3.90;2.60;;;24.00;98.20;;;25.01;47.05;97823.50;10376682;28;20600;-83
2023/07/31 08:24:25;;;;;;;4.78;2.58;;;23.50;96.90;;;24.49;49.16;97820.84;10372956;28;20238;-83
2023/07/31 08:29:28;;;;;;;3.20;2.35;;;23.10;97.70;;;24.30;50.43;97806.88;10378249;28;20229;-81
2023/07/31 08:34:33;;;;;;;4.53;2.67;;;23.30;97.90;;;24.02;50.30;97805.94;10374634;28;20226;-84
2023/07/31 08:39:39;;;;;;;3.90;2.90;;;23.00;98.20;;;24.24;50.61;97802.50;10369391;28;20222;-81
2023/07/31 08:44:44;;;;;;;3.78;2.67;;;23.70;97.10;;;24.69;49.26;97792.97;10363346;28;20237;-82
2023/07/31 08:49:49;;;;;;;3.55;2.83;;;24.20;96.50;;;25.02;48.63;97783.38;10379378;28;20865;-83
2023/07/31 08:54:52;;;;;;;4.43;3.13;;;24.30;96.10;;;25.23;47.38;97781.63;10364905;28;20226;-81
2023/07/31 08:59:57;;;;;;;4.40;2.50;;;24.50;95.40;;;25.25;45.50;97778.13;10367803;28;20354;-82
2023/07/31 09:05:03;;;;;;;4.22;2.60;;;24.50;93.50;;;25.57;46.40;97767.53;10363626;28;20649;-82
2023/07/31 09:10:07;;;;;;;6.05;2.78;;;25.10;94.10;;;25.31;44.54;97785.09;10365332;28;20221;-79
2023/07/31 09:15:12;;;;;;;6.07;3.20;;;24.40;92.90;;;24.57;47.67;97784.28;10367294;28;20230;-80
2023/07/31 09:20:31;;;;;;;3.75;2.72;;;23.60;95.30;;;25.01;46.80;97785.97;10367086;28;20305;-80
2023/07/31 09:25:34;;;;;;;3.28;2.78;;;24.50;94.30;;;25.25;45.59;97756.34;10367279;28;20337;-80
2023/07/31 09:30:49;;;;;;;6.72;3.00;;;24.50;93.50;;;25.71;44.94;97753.53;10374823;28;20230;-81
2023/07/31 09:35:54;;;;;;;3.30;2.80;;;25.20;92.90;;;25.44;43.45;97755.41;10374293;28;20868;-79
2023/07/31 09:41:00;;;;;;;4.50;2.58;;;24.80;91.40;;;25.30;45.73;97765.91;10372293;28;20273;-81
2023/07/31 09:46:03;;;;;;;5.07;3.00;;;24.70;93.20;;;25.16;43.86;97750.25;10359077;28;20230;-79
2023/07/31 09:51:08;;;;;;;4.47;2.55;;;24.70;91.40;;;25.28;44.49;97754.56;10365359;28;20227;-78
2023/07/31 09:56:11;;;;;;;4.18;2.50;;;24.70;91.40;;;25.34;44.84;97735.34;10359108;28;20234;-81
2023/07/31 11:15:54;;;;;;;4.25;2.90;;;24.70;91.30;;;25.09;45.38;97674.34;10501213;27;20824;-71
2023/07/31 11:20:57;;;;;;;4.15;2.80;;;24.80;91.20;;;25.22;45.04;97665.63;10434284;28;20228;-70
2023/07/31 11:26:01;;;;;;;8.77;3.67;;;24.50;91.30;;;25.32;44.76;97655.97;10417280;28;20229;-70
2023/07/31 11:31:06;;;;;;;4.88;3.30;;;24.40;91.80;;;25.44;43.78;97655.94;10428473;28;20221;-69
2023/07/31 11:36:18;;;;;;;4.85;3.42;;;24.70;91.10;;;25.33;43.72;97653.38;10421396;28;20237;-69
2023/07/31 11:41:21;;;;;;;3.47;2.92;;;24.60;91.00;;;25.39;44.11;97662.94;10425151;28;20228;-70
2023/07/31 11:46:26;;;;;;;3.67;2.55;;;24.80;90.80;;;25.44;45.02;97640.25;10425873;28;20228;-70
2023/07/31 11:51:30;;;;;;;5.55;3.05;;;24.80;91.80;;;25.58;45.29;97642.75;10426599;28;20618;-69
2023/07/31 11:56:34;;;;;;;4.65;3.50;;;24.90;91.80;;;25.96;44.22;97639.06;10425843;28;20233;-69
2023/07/31 12:01:38;;;;;;;4.65;3.22;;;25.10;91.70;;;25.76;42.99;97631.31;10428580;28;20256;-70
2023/07/31 12:06:42;;;;;;;7.78;3.50;;;24.90;90.70;;;25.64;44.73;97632.25;10419745;28;20228;-70
2023/07/31 12:11:47;;;;;;;4.53;2.95;;;24.80;91.60;;;25.70;44.70;97624.38;10424444;28;20228;-70
2023/07/31 12:16:55;;;;;;;4.57;3.00;;;24.90;91.70;;;25.66;44.16;97609.53;10424761;28;20229;-69
2023/07/31 12:22:00;;;;;;;4.95;3.22;;;24.80;91.10;;;25.46;43.84;97604.44;10419700;28;20235;-70
2023/07/31 12:27:11;;;;;;;4.20;3.70;;;24.40;91.50;;;25.07;45.21;97597.66;10420033;28;20224;-70
2023/07/31 12:32:28;;;;;;;4.80;3.60;;;24.00;92.00;;;25.17;45.99;97587.16;10395454;28;20267;-70
2023/07/31 12:37:32;;;;;;;5.03;3.70;;;24.30;92.10;;;25.32;45.60;97587.94;10387252;28;20356;-69
2023/07/31 12:42:35;;;;;;;3.53;3.00;;;24.20;92.30;;;25.17;45.08;97579.31;10362235;28;20344;-69
2023/07/31 12:47:39;;;;;;;3.78;3.42;;;24.10;92.00;;;24.94;47.54;97573.28;10410664;28;20259;-70
2023/07/31 12:52:43;;;;;;;5.13;3.40;;;23.90;93.30;;;25.21;45.55;97568.81;10362541;28;20720;-70
2023/07/31 12:57:46;;;;;;;5.05;3.75;;;24.10;92.50;;;25.23;45.27;97556.59;10392862;28;20229;-71
2023/07/31 13:02:50;;;;;;;4.18;3.25;;;24.00;92.60;;;24.98;45.98;97548.88;10394265;28;20232;-70
2023/07/31 13:07:54;;;;;;;5.50;3.30;;;23.90;93.00;;;24.99;47.30;97545.38;10396145;28;20240;-69
2023/07/31 13:12:57;;;;;;;4.65;3.33;;;24.00;93.40;;;24.98;46.75;97540.16;10392533;28;20222;-70
2023/07/31 13:18:02;;;;;;;5.25;3.50;;;23.80;93.40;;;24.96;46.03;97534.94;10394194;28;20242;-68
2023/07/31 13:23:05;;;;;;;5.25;3.63;;;23.90;92.60;;;24.90;46.10;97532.34;10381090;28;20213;-71
2023/07/31 13:28:08;;;;;;;4.85;3.22;;;23.70;92.60;;;24.97;47.59;97526.19;10399754;28;20229;-72
2023/07/31 13:33:13;;;;;;;5.00;3.40;;;23.70;93.90;;;24.64;47.92;97520.28;10392995;28;20300;-70
2023/07/31 13:38:36;;;;;;;4.40;3.30;;;23.50;94.10;;;24.53;46.66;97511.59;10371907;28;20302;-70
2023/07/31 13:43:39;;;;;;;5.07;3.42;;;23.40;93.30;;;24.45;48.37;97509.00;10393204;28;20239;-72
2023/07/31 13:48:43;;;;;;;4.85;3.35;;;23.30;94.20;;;24.42;49.21;97514.22;10388027;28;20236;-71
2023/07/31 13:53:46;;;;;;;5.30;3.70;;;23.20;94.80;;;24.25;49.63;97511.66;10394676;28;20622;-71
2023/07/31 13:58:50;;;;;;;4.45;3.45;;;23.10;95.60;;;24.11;49.38;97512.56;10394849;28;20267;-71
2023/07/31 14:03:54;;;;;;;5.25;3.80;;;23.00;95.10;;;23.93;51.25;97514.34;10388942;28;20225;-71
2023/07/31 14:08:57;;;;;;;4.65;3.40;;;22.90;96.20;;;23.97;49.94;97509.97;10390534;28;20236;-71
2023/07/31 14:14:01;;;;;;;6.65;3.22;;;22.90;95.30;;;23.93;50.24;97513.47;10391002;28;20229;-71
2023/07/31 14:19:07;;;;;;;3.97;3.15;;;22.80;95.70;;;23.87;50.54;97503.06;10393677;28;20273;-71
2023/07/31 14:24:11;;;;;;;4.93;3.65;;;22.80;96.10;;;23.85;50.46;97505.66;10393236;28;20230;-71
2023/07/31 14:29:14;;;;;;;5.70;3.50;;;22.80;95.80;;;24.15;49.77;97499.50;10389842;28;20716;-72
2023/07/31 14:34:18;;;;;;;3.63;3.20;;;23.10;95.40;;;24.29;49.64;97504.66;10388832;28;20233;-71
2023/07/31 14:39:21;;;;;;;4.57;3.30;;;23.20;95.50;;;24.60;49.10;97494.16;10392919;28;20706;-72
2023/07/31 14:44:25;;;;;;;3.85;3.50;;;23.40;95.30;;;24.70;48.00;97491.50;10390294;28;20287;-67
2023/07/31 14:49:29;;;;;;;5.13;3.42;;;23.60;94.40;;;24.62;49.15;97489.78;10391090;28;20618;-66
2023/07/31 14:54:32;;;;;;;4.57;3.47;;;23.60;95.20;;;24.69;48.76;97481.88;10377848;28;20228;-66
2023/07/31 14:59:35;;;;;;;3.78;3.20;;;23.60;94.90;;;24.80;49.65;97471.38;10388661;28;21105;-66
2023/07/31 15:04:40;;;;;;;4.95;3.13;;;23.70;95.20;;;24.84;48.58;97473.13;10388160;28;20229;-67
2023/07/31 15:09:43;;;;;;;3.95;3.53;;;23.80;94.70;;;24.96;48.05;97459.09;10350210;28;20253;-66
2023/07/31 15:14:46;;;;;;;3.97;3.55;;;23.80;94.30;;;25.00;48.08;97458.19;10385426;28;20230;-66
2023/07/31 15:19:51;;;;;;;5.32;3.85;;;24.00;94.30;;;24.87;48.50;97446.09;10389941;28;20240;-66
2023/07/31 15:24:54;;;;;;;3.58;2.88;;;23.80;94.70;;;25.03;47.96;97445.09;10394691;28;20217;-66
2023/07/31 15:29:57;;;;;;;3.90;3.50;;;23.90;94.30;;;24.94;47.72;97439.91;10389123;28;20221;-65
2023/07/31 15:35:01;;;;;;;4.78;3.25;;;24.00;93.70;;;24.76;49.42;97432.22;10392917;28;20741;-66
2023/07/31 15:40:05;;;;;;;5.32;3.88;;;23.60;95.00;;;24.75;49.78;97423.47;10392359;28;20607;-69
2023/07/31 15:45:10;;;;;;;3.78;3.40;;;23.60;95.40;;;24.66;49.60;97428.75;10390606;28;20229;-68
2023/07/31 15:50:15;;;;;;;4.03;3.28;;;23.50;95.60;;;24.63;49.15;97416.56;10388837;28;20248;-69
2023/07/31 15:55:18;;;;;;;4.55;3.40;;;23.60;95.10;;;24.60;49.70;97402.66;10387833;28;20225;-68
2023/07/31 16:00:21;;;;;;;5.43;3.30;;;23.60;95.30;;;24.67;50.12;97404.38;10398935;28;20611;-67
2023/07/31 16:05:26;;;;;;;4.35;3.67;;;23.60;95.30;;;24.44;48.80;97407.13;10398844;28;20222;-66
2023/07/31 16:10:29;;;;;;;4.30;3.40;;;23.60;94.40;;;24.47;48.89;97389.69;10397136;28;20320;-67
2023/07/31 16:15:32;;;;;;;4.13;3.50;;;23.60;94.70;;;24.56;48.69;97374.84;10395083;28;20724;-67
2023/07/31 16:20:37;;;;;;;3.60;3.13;;;23.80;93.80;;;24.52;48.10;97375.72;10396695;28;20268;-66
2023/07/31 16:25:40;;;;;;;3.50;3.20;;;23.70;93.90;;;24.45;48.97;97374.88;10397784;28;20222;-66
2023/07/31 16:30:44;;;;;;;5.47;4.07;;;23.70;94.10;;;24.49;48.44;97373.97;10396682;28;20229;-67
2023/07/31 16:35:48;;;;;;;4.28;3.60;;;23.60;94.20;;;24.33;48.55;97364.47;10397166;28;20228;-67
2023/07/31 16:40:51;;;;;;;4.00;3.22;;;23.30;94.20;;;24.21;48.69;97363.66;10399116;28;20230;-69
2023/07/31 16:45:54;;;;;;;3.42;3.13;;;23.30;94.10;;;24.11;49.55;97348.91;10394195;28;20221;-66
2023/07/31 16:50:59;;;;;;;4.57;3.15;;;23.10;95.00;;;24.02;49.81;97352.44;10380610;28;20309;-67
2023/07/31 16:56:02;;;;;;;4.00;3.60;;;23.10;94.90;;;24.19;49.97;97346.25;10342464;28;20249;-67
2023/07/31 17:01:05;;;;;;;3.70;3.15;;;23.20;94.90;;;24.37;50.00;97342.66;10381364;28;20240;-67
2023/07/31 17:06:10;;;;;;;3.72;3.30;;;23.30;95.20;;;24.36;48.88;97357.50;10391841;28;20229;-67
2023/07/31 17:11:13;;;;;;;4.03;3.60;;;23.30;94.60;;;24.27;48.96;97350.56;10397021;28;20253;-67
2023/07/31 17:16:16;;;;;;;6.63;3.47;;;23.30;94.50;;;24.11;49.40;97351.50;10414809;28;20238;-68
2023/07/31 17:21:20;;;;;;;4.25;3.30;;;23.10;94.60;;;23.86;50.18;97357.72;10362972;28;20257;-68
2023/07/31 17:26:24;;;;;;;4.57;3.50;;;22.80;95.30;;;23.66;51.27;97355.13;10391152;28;20700;-68
2023/07/31 17:31:27;;;;;;;4.93;3.28;;;22.70;95.90;;;23.67;50.98;97351.66;10382308;28;20645;-68
2023/07/31 17:36:32;;;;;;;4.78;3.85;;;22.70;95.70;;;23.44;53.37;97352.59;10399502;28;20752;-68
2023/07/31 17:41:35;;;;;;;3.83;3.15;;;22.50;97.40;;;23.55;52.30;97334.28;10397997;28;20237;-68
2023/07/31 17:46:39;;;;;;;4.22;3.45;;;22.60;96.70;;;23.53;52.87;97336.91;10401691;28;20221;-68
2023/07/31 17:51:44;;;;;;;4.53;3.40;;;22.40;97.30;;;23.23;55.75;97340.44;10397139;28;20291;-68
2023/07/31 17:56:47;;;;;;;4.00;3.60;;;22.30;98.90;;;23.22;55.00;97346.53;10401982;28;20225;-68
2023/07/31 18:01:50;;;;;;;4.05;3.30;;;22.20;98.60;;;22.97;56.15;97334.38;10398837;28;20616;-68
2023/07/31 18:06:54;;;;;;;4.40;3.58;;;22.00;99.30;;;22.77;56.48;97344.78;10397914;28;20214;-68
2023/07/31 18:11:57;;;;;;;4.18;3.42;;;21.80;99.40;;;22.56;58.89;97328.28;10394147;28;20235;-68
2023/07/31 18:17:01;;;;;;;4.53;3.50;;;21.60;99.90;;;22.43;59.80;97330.00;10398703;28;20229;-67
2023/07/31 18:22:06;;;;;;;4.13;3.72;;;21.50;99.90;;;22.32;61.14;97347.34;10392580;28;20233;-68
2023/07/31 18:27:09;;;;;;;4.10;3.70;;;21.40;99.90;;;22.05;68.08;97338.53;10395092;28;20233;-67
2023/07/31 18:32:12;;;;;;;5.07;3.65;;;21.20;99.90;;;21.72;70.12;97335.78;10394453;28;20729;-68
2023/07/31 18:37:17;;;;;;;4.88;3.45;;;21.00;99.90;;;21.61;74.42;97334.91;10394242;28;20257;-67
2023/07/31 18:42:20;;;;;;;4.45;3.85;;;20.80;99.90;;;21.53;78.63;97335.72;10394958;28;20713;-68
2023/07/31 18:47:23;;;;;;;4.80;4.10;;;20.80;99.90;;;21.34;79.20;97341.63;10390908;28;20261;-68
2023/07/31 18:52:28;;;;;;;4.50;4.10;;;20.60;99.90;;;21.25;80.10;97318.19;10390508;28;20681;-68
2023/07/31 18:57:31;;;;;;;5.30;3.72;;;20.50;99.90;;;21.08;79.10;97305.94;10398315;28;20321;-68
2023/07/31 19:02:34;;;;;;;4.95;4.00;;;20.30;99.90;;;20.98;79.34;97304.16;10398819;28;20644;-68
2023/07/31 19:07:39;;;;;;;4.50;4.03;;;20.20;99.90;;;20.87;78.54;97311.88;10394596;28;20368;-69
2023/07/31 19:12:42;;;;;;;5.50;4.20;;;20.00;99.90;;;20.85;80.05;97328.31;10396887;28;20222;-69
2023/07/31 19:17:46;;;;;;;5.13;4.35;;;20.00;99.90;;;20.78;82.28;97323.94;10394015;28;20618;-69
2023/07/31 19:22:51;;;;;;;4.82;4.30;;;19.90;99.90;;;20.54;87.97;97320.25;10396789;28;20733;-69
2023/07/31 19:27:54;;;;;;;5.60;4.47;;;19.80;99.90;;;20.19;90.89;97325.06;10396678;28;20612;-69
2023/07/31 19:33:00;;;;;;;4.88;4.28;;;19.60;99.90;;;19.91;94.31;97344.63;10391880;28;20218;-68
2023/07/31 19:38:04;;;;;;;6.55;5.25;;;19.30;99.90;;;19.71;97.96;97329.69;10401731;28;20237;-68
2023/07/31 19:43:08;;;;;;;7.22;4.82;;;19.10;99.90;;;19.54;100.00;97329.47;10397258;28;20237;-68
2023/07/31 19:48:11;;;;;;;5.60;5.10;;;19.00;99.90;;;19.38;100.00;97327.53;10401238;28;20229;-68
2023/07/31 19:53:15;;;;;;;7.30;5.55;;;18.90;99.90;;;19.38;100.00;97337.03;10398455;28;20802;-68
2023/07/31 19:58:18;;;;;;;8.30;5.60;;;18.80;99.90;;;19.22;100.00;97336.78;10398988;28;20236;-69
2023/07/31 20:03:22;;;;;;;6.10;5.10;;;18.60;99.90;;;19.06;100.00;97335.69;10397686;28;20605;-68
2023/07/31 20:08:26;;;;;;;6.45;5.68;;;18.40;99.90;;;18.80;100.00;97332.72;10397825;28;20230;-68
2023/07/31 20:13:30;;;;;;;8.15;5.72;;;18.20;99.90;;;18.73;100.00;97329.94;10381509;28;20229;-70
2023/07/31 20:18:34;;;;;;;8.77;5.78;;;18.20;99.90;;;18.78;100.00;97333.53;10367576;28;20222;-69
2023/07/31 20:23:40;;;;;;;7.25;5.65;;;18.20;99.90;;;18.69;100.00;97339.41;10402537;28;20236;-69
2023/07/31 20:28:46;;;;;;;7.72;5.93;;;18.00;99.90;;;18.48;100.00;97336.44;10400143;28;20303;-69
2023/07/31 20:33:49;;;;;;;6.22;4.90;;;17.90;99.90;;;18.36;100.00;97335.34;10401848;28;20229;-69
2023/07/31 20:38:53;;;;;;;8.85;6.40;;;17.80;99.90;;;18.41;100.00;97317.34;10400961;28;20226;-68
2023/07/31 20:43:57;;;;;;;6.90;6.13;;;17.80;99.90;;;18.34;100.00;97295.66;10397972;28;20236;-68
2023/07/31 20:49:00;;;;;;;7.45;6.07;;;17.70;99.90;;;18.20;100.00;97289.38;10400701;28;20237;-69
2023/07/31 20:54:05;;;;;;;9.25;6.53;;;17.60;99.90;;;18.28;100.00;97299.84;10400959;28;20226;-69
2023/07/31 20:59:09;;;;;;;7.13;6.38;;;17.70;99.90;;;18.28;100.00;97285.19;10397483;28;20260;-68
2023/07/31 21:04:13;;;;;;;8.02;6.40;;;17.70;99.90;;;18.36;100.00;97273.25;10398427;28;20226;-68
2023/07/31 21:09:18;;;;;;;8.15;6.70;;;17.70;99.90;;;18.28;100.00;97269.66;10394455;28;20244;-68
2023/07/31 21:14:21;;;;;;;8.30;6.18;;;17.70;99.90;;;18.20;100.00;97255.75;10387703;28;20704;-68
2023/07/31 21:19:24;;;;;;;8.32;6.32;;;17.60;99.90;;;18.17;100.00;97243.63;10363921;28;20225;-69
2023/07/31 21:24:29;;;;;;;6.97;6.28;;;17.60;99.90;;;18.08;100.00;97235.69;10397274;28;20231;-69
2023/07/31 21:29:32;;;;;;;9.02;6.60;;;17.60;99.90;;;18.11;100.00;97227.97;10391787;28;20234;-69
2023/07/31 21:34:35;;;;;;;7.53;6.82;;;17.50;99.90;;;18.09;100.00;97228.81;10393560;28;20221;-69
2023/07/31 21:39:39;;;;;;;7.70;6.57;;;17.50;99.90;;;18.04;100.00;97212.34;10396371;28;20230;-68
2023/07/31 21:44:42;;;;;;;7.95;6.28;;;17.50;99.90;;;17.89;100.00;97193.13;10394884;28;20221;-68
2023/07/31 21:49:45;;;;;;;7.35;6.57;;;17.30;99.90;;;17.95;100.00;97195.81;10398441;28;20234;-69
2023/07/31 21:54:50;;;;;;;6.75;6.15;;;17.40;99.90;;;17.89;100.00;97172.44;10393752;28;20226;-68
2023/07/31 21:59:53;;;;;;;7.05;6.35;;;17.30;99.90;;;17.97;100.00;97170.88;10394821;28;20237;-68
2023/07/31 22:04:56;;;;;;;7.55;6.70;;;17.40;99.90;;;18.08;100.00;97157.22;10391301;28;20222;-68
2023/07/31 22:10:01;;;;;;;7.68;6.28;;;17.40;99.90;;;17.90;100.00;97140.56;10395871;28;20641;-68
2023/07/31 22:15:05;;;;;;;8.65;6.10;;;17.30;99.90;;;17.98;100.00;97136.41;10374742;28;20564;-69